sensor_id;sensor_type;location;lat;lon;timestamp;pressure;altitude;pressure_sealevel;temperature;humidity
19748;BME280;10032;51.386;12.516;2023-03-15T00:01:18;99531.38;;;4.08;100.00
19748;BME280;10032;51.386;12.516;2023-03-15T00:03:46;99533.50;;;4.06;100.00
19748;BME280;10032;51.386;12.516;2023-03-15T00:06:15;99539.75;;;4.00;100.00
19748;BME280;10032;51.386;12.516;2023-03-15T00:08:49;99553.13;;;4.00;100.00
19748;BME280;10032;51.386;12.516;2023-03-15T00:11:19;99563.69;;;3.95;100.00
19748;BME280;10032;51.386;12.516;2023-03-15T00:13:45;99554.84;;;3.95;100.00
19748;BME280;10032;51.386;12.516;2023-03-15T00:16:11;99560.28;;;3.88;100.00
19748;BME280;10032;51.386;12.516;2023-03-15T00:18:48;99562.97;;;3.88;100.00
19748;BME280;10032;51.386;12.516;2023-03-15T00:21:13;99566.66;;;3.87;100.00
19748;BME280;10032;51.386;12.516;2023-03-15T00:23:41;99558.03;;;3.85;100.00
19748;BME280;10032;51.386;12.516;2023-03-15T00:26:12;99570.22;;;3.81;100.00
19748;BME280;10032;51.386;12.516;2023-03-15T00:28:38;99577.22;;;3.82;100.00
19748;BME280;10032;51.386;12.516;2023-03-15T00:31:06;99574.16;;;3.79;100.00
19748;BME280;10032;51.386;12.516;2023-03-15T00:33:32;99575.00;;;3.79;100.00
19748;BME280;10032;51.386;12.516;2023-03-15T00:36:04;99576.25;;;3.77;100.00
19748;BME280;10032;51.386;12.516;2023-03-15T00:38:30;99587.38;;;3.74;100.00
19748;BME280;10032;51.386;12.516;2023-03-15T00:41:11;99588.22;;;3.74;100.00
19748;BME280;10032;51.386;12.516;2023-03-15T00:43:36;99583.69;;;3.75;100.00
19748;BME280;10032;51.386;12.516;2023-03-15T00:46:03;99577.28;;;3.76;100.00
19748;BME280;10032;51.386;12.516;2023-03-15T00:48:30;99587.78;;;3.77;100.00
19748;BME280;10032;51.386;12.516;2023-03-15T00:51:07;99594.94;;;3.83;100.00
19748;BME280;10032;51.386;12.516;2023-03-15T00:53:34;99590.59;;;3.82;100.00
19748;BME280;10032;51.386;12.516;2023-03-15T00:56:08;99590.84;;;3.81;100.00
19748;BME280;10032;51.386;12.516;2023-03-15T00:58:34;99594.31;;;3.81;100.00
19748;BME280;10032;51.386;12.516;2023-03-15T01:01:04;99602.56;;;3.80;100.00
19748;BME280;10032;51.386;12.516;2023-03-15T01:03:29;99602.56;;;3.80;100.00
19748;BME280;10032;51.386;12.516;2023-03-15T01:05:55;99605.50;;;3.78;100.00
19748;BME280;10032;51.386;12.516;2023-03-15T01:08:20;99603.88;;;3.77;100.00
19748;BME280;10032;51.386;12.516;2023-03-15T01:10:48;99609.81;;;3.79;100.00
19748;BME280;10032;51.386;12.516;2023-03-15T01:13:14;99613.28;;;3.80;100.00
19748;BME280;10032;51.386;12.516;2023-03-15T01:15:44;99612.28;;;3.81;100.00
19748;BME280;10032;51.386;12.516;2023-03-15T01:18:10;99613.06;;;3.81;100.00
19748;BME280;10032;51.386;12.516;2023-03-15T01:20:35;99604.66;;;3.78;100.00
19748;BME280;10032;51.386;12.516;2023-03-15T01:23:01;99604.66;;;3.78;100.00
19748;BME280;10032;51.386;12.516;2023-03-15T01:25:26;99610.69;;;3.73;100.00
19748;BME280;10032;51.386;12.516;2023-03-15T01:27:51;99606.75;;;3.76;100.00
19748;BME280;10032;51.386;12.516;2023-03-15T01:30:17;99607.41;;;3.71;100.00
19748;BME280;10032;51.386;12.516;2023-03-15T01:32:42;99606.38;;;3.72;100.00
19748;BME280;10032;51.386;12.516;2023-03-15T01:35:08;99611.72;;;3.72;100.00
19748;BME280;10032;51.386;12.516;2023-03-15T01:37:33;99606.38;;;3.72;100.00
19748;BME280;10032;51.386;12.516;2023-03-15T01:39:59;99621.81;;;3.70;100.00
19748;BME280;10032;51.386;12.516;2023-03-15T01:42:24;99616.50;;;3.64;100.00
19748;BME280;10032;51.386;12.516;2023-03-15T01:44:56;99624.78;;;3.62;100.00
19748;BME280;10032;51.386;12.516;2023-03-15T01:47:24;99618.47;;;3.50;100.00
19748;BME280;10032;51.386;12.516;2023-03-15T01:49:57;99614.00;;;3.44;100.00
19748;BME280;10032;51.386;12.516;2023-03-15T01:52:29;99621.06;;;3.39;100.00
19748;BME280;10032;51.386;12.516;2023-03-15T01:57:27;99624.78;;;3.38;100.00
19748;BME280;10032;51.386;12.516;2023-03-15T02:02:45;99630.38;;;3.30;100.00
19748;BME280;10032;51.386;12.516;2023-03-15T02:05:17;99636.75;;;3.29;100.00
19748;BME280;10032;51.386;12.516;2023-03-15T02:07:44;99621.97;;;3.26;100.00
19748;BME280;10032;51.386;12.516;2023-03-15T02:10:17;99625.88;;;3.24;100.00
19748;BME280;10032;51.386;12.516;2023-03-15T02:12:47;99628.13;;;3.27;100.00
19748;BME280;10032;51.386;12.516;2023-03-15T02:15:16;99632.88;;;3.25;100.00
19748;BME280;10032;51.386;12.516;2023-03-15T02:17:45;99627.53;;;3.25;100.00
19748;BME280;10032;51.386;12.516;2023-03-15T02:22:56;99634.31;;;3.21;100.00
19748;BME280;10032;51.386;12.516;2023-03-15T02:25:44;99629.81;;;3.21;100.00
19748;BME280;10032;51.386;12.516;2023-03-15T02:28:15;99634.13;;;3.22;100.00
19748;BME280;10032;51.386;12.516;2023-03-15T02:30:41;99636.78;;;3.22;100.00
19748;BME280;10032;51.386;12.516;2023-03-15T02:33:13;99640.50;;;3.21;100.00
19748;BME280;10032;51.386;12.516;2023-03-15T02:35:41;99642.59;;;3.19;100.00
19748;BME280;10032;51.386;12.516;2023-03-15T02:38:07;99654.56;;;3.17;100.00
19748;BME280;10032;51.386;12.516;2023-03-15T02:40:32;99655.56;;;3.16;100.00
19748;BME280;10032;51.386;12.516;2023-03-15T02:43:19;99666.50;;;3.14;100.00
19748;BME280;10032;51.386;12.516;2023-03-15T02:45:48;99656.41;;;3.16;100.00
19748;BME280;10032;51.386;12.516;2023-03-15T02:48:14;99662.34;;;3.18;100.00
19748;BME280;10032;51.386;12.516;2023-03-15T02:50:40;99666.06;;;3.17;100.00
19748;BME280;10032;51.386;12.516;2023-03-15T02:53:06;99669.78;;;3.16;100.00
19748;BME280;10032;51.386;12.516;2023-03-15T02:55:32;99678.84;;;3.15;100.00
19748;BME280;10032;51.386;12.516;2023-03-15T02:57:58;99686.69;;;3.10;100.00
19748;BME280;10032;51.386;12.516;2023-03-15T03:00:24;99686.69;;;3.10;100.00
19748;BME280;10032;51.386;12.516;2023-03-15T03:02:50;99690.81;;;3.06;100.00
19748;BME280;10032;51.386;12.516;2023-03-15T03:05:15;99689.19;;;3.05;100.00
19748;BME280;10032;51.386;12.516;2023-03-15T03:07:41;99696.56;;;3.03;100.00
19748;BME280;10032;51.386;12.516;2023-03-15T03:10:08;99704.44;;;2.98;100.00
19748;BME280;10032;51.386;12.516;2023-03-15T03:12:33;99701.97;;;2.97;100.00
19748;BME280;10032;51.386;12.516;2023-03-15T03:14:59;99705.69;;;2.96;100.00
19748;BME280;10032;51.386;12.516;2023-03-15T03:17:26;99707.53;;;2.95;100.00
19748;BME280;10032;51.386;12.516;2023-03-15T03:19:52;99704.25;;;2.93;100.00
19748;BME280;10032;51.386;12.516;2023-03-15T03:22:18;99704.06;;;2.88;100.00
19748;BME280;10032;51.386;12.516;2023-03-15T03:24:44;99713.53;;;2.84;100.00
19748;BME280;10032;51.386;12.516;2023-03-15T03:27:13;99723.63;;;2.82;100.00
19748;BME280;10032;51.386;12.516;2023-03-15T03:29:40;99723.00;;;2.80;100.00
19748;BME280;10032;51.386;12.516;2023-03-15T03:32:06;99725.28;;;2.83;100.00
19748;BME280;10032;51.386;12.516;2023-03-15T03:34:31;99736.38;;;2.74;100.00
19748;BME280;10032;51.386;12.516;2023-03-15T03:36:57;99733.31;;;2.70;100.00
19748;BME280;10032;51.386;12.516;2023-03-15T03:39:22;99732.91;;;2.73;100.00
19748;BME280;10032;51.386;12.516;2023-03-15T03:41:48;99732.09;;;2.66;100.00
19748;BME280;10032;51.386;12.516;2023-03-15T03:44:14;99732.09;;;2.66;100.00
19748;BME280;10032;51.386;12.516;2023-03-15T03:46:39;99740.75;;;2.68;100.00
19748;BME280;10032;51.386;12.516;2023-03-15T03:49:05;99736.63;;;2.66;100.00
19748;BME280;10032;51.386;12.516;2023-03-15T03:51:30;99745.44;;;2.66;100.00
19748;BME280;10032;51.386;12.516;2023-03-15T03:53:58;99757.19;;;2.65;100.00
19748;BME280;10032;51.386;12.516;2023-03-15T03:56:23;99755.53;;;2.64;100.00
19748;BME280;10032;51.386;12.516;2023-03-15T03:58:49;99750.63;;;2.61;100.00
19748;BME280;10032;51.386;12.516;2023-03-15T04:01:15;99759.69;;;2.54;100.00
19748;BME280;10032;51.386;12.516;2023-03-15T04:03:41;99761.53;;;2.53;100.00
19748;BME280;10032;51.386;12.516;2023-03-15T04:06:06;99769.75;;;2.58;100.00
19748;BME280;10032;51.386;12.516;2023-03-15T04:08:32;99768.72;;;2.59;100.00
19748;BME280;10032;51.386;12.516;2023-03-15T04:10:57;99776.72;;;2.59;100.00
19748;BME280;10032;51.386;12.516;2023-03-15T04:13:23;99774.06;;;2.59;100.00
19748;BME280;10032;51.386;12.516;2023-03-15T04:15:50;99778.19;;;2.55;100.00
19748;BME280;10032;51.386;12.516;2023-03-15T04:18:16;99792.19;;;2.57;100.00
19748;BME280;10032;51.386;12.516;2023-03-15T04:20:42;99789.69;;;2.56;100.00
19748;BME280;10032;51.386;12.516;2023-03-15T04:23:17;99786.81;;;2.57;100.00
19748;BME280;10032;51.386;12.516;2023-03-15T04:25:47;99797.13;;;2.54;100.00
19748;BME280;10032;51.386;12.516;2023-03-15T04:28:13;99797.53;;;2.57;100.00
19748;BME280;10032;51.386;12.516;2023-03-15T04:30:38;99802.88;;;2.57;100.00
19748;BME280;10032;51.386;12.516;2023-03-15T04:33:04;99803.47;;;2.59;100.00
19748;BME280;10032;51.386;12.516;2023-03-15T04:35:32;99809.84;;;2.58;100.00
19748;BME280;10032;51.386;12.516;2023-03-15T04:37:57;99800.19;;;2.57;100.00
19748;BME280;10032;51.386;12.516;2023-03-15T04:40:24;99803.91;;;2.56;100.00
19748;BME280;10032;51.386;12.516;2023-03-15T04:42:50;99809.25;;;2.56;100.00
19748;BME280;10032;51.386;12.516;2023-03-15T04:45:16;99814.59;;;2.56;100.00
19748;BME280;10032;51.386;12.516;2023-03-15T04:47:42;99813.97;;;2.54;100.00
19748;BME280;10032;51.386;12.516;2023-03-15T04:50:08;99818.69;;;2.52;100.00
19748;BME280;10032;51.386;12.516;2023-03-15T04:52:34;99821.97;;;2.54;100.00
19748;BME280;10032;51.386;12.516;2023-03-15T04:54:59;99822.19;;;2.53;100.00
19748;BME280;10032;51.386;12.516;2023-03-15T04:57:25;99820.13;;;2.48;100.00
19748;BME280;10032;51.386;12.516;2023-03-15T04:59:50;99820.75;;;2.50;100.00
19748;BME280;10032;51.386;12.516;2023-03-15T05:02:16;99823.84;;;2.47;100.00
19748;BME280;10032;51.386;12.516;2023-03-15T05:04:42;99824.66;;;2.48;100.00
19748;BME280;10032;51.386;12.516;2023-03-15T05:07:08;99824.66;;;2.41;100.00
19748;BME280;10032;51.386;12.516;2023-03-15T05:09:33;99822.59;;;2.43;100.00
19748;BME280;10032;51.386;12.516;2023-03-15T05:12:05;99833.50;;;2.42;100.00
19748;BME280;10032;51.386;12.516;2023-03-15T05:14:31;99832.50;;;2.43;100.00
19748;BME280;10032;51.386;12.516;2023-03-15T05:16:57;99837.84;;;2.43;100.00
19748;BME280;10032;51.386;12.516;2023-03-15T05:19:24;99838.84;;;2.42;100.00
19748;BME280;10032;51.386;12.516;2023-03-15T05:21:50;99840.72;;;2.41;100.00
19748;BME280;10032;51.386;12.516;2023-03-15T05:24:16;99847.09;;;2.40;100.00
19748;BME280;10032;51.386;12.516;2023-03-15T05:26:41;99852.63;;;2.45;100.00
19748;BME280;10032;51.386;12.516;2023-03-15T05:29:14;99853.47;;;2.52;100.00
19748;BME280;10032;51.386;12.516;2023-03-15T05:31:39;99854.69;;;2.56;100.00
19748;BME280;10032;51.386;12.516;2023-03-15T05:34:06;99867.44;;;2.61;100.00
19748;BME280;10032;51.386;12.516;2023-03-15T05:36:32;99864.38;;;2.64;100.00
19748;BME280;10032;51.386;12.516;2023-03-15T05:38:58;99866.63;;;2.67;100.00
19748;BME280;10032;51.386;12.516;2023-03-15T05:41:24;99863.09;;;2.73;100.00
19748;BME280;10032;51.386;12.516;2023-03-15T05:43:50;99871.34;;;2.78;100.00
19748;BME280;10032;51.386;12.516;2023-03-15T05:46:16;99878.31;;;2.79;100.00
19748;BME280;10032;51.386;12.516;2023-03-15T05:48:42;99877.72;;;2.83;100.00
19748;BME280;10032;51.386;12.516;2023-03-15T05:51:07;99875.66;;;2.85;100.00
19748;BME280;10032;51.386;12.516;2023-03-15T05:53:33;99883.88;;;2.90;100.00
19748;BME280;10032;51.386;12.516;2023-03-15T05:55:58;99892.13;;;2.95;100.00
19748;BME280;10032;51.386;12.516;2023-03-15T05:58:24;99891.28;;;2.95;100.00
19748;BME280;10032;51.386;12.516;2023-03-15T06:00:49;99891.28;;;2.95;100.00
19748;BME280;10032;51.386;12.516;2023-03-15T06:03:15;99902.81;;;2.95;100.00
19748;BME280;10032;51.386;12.516;2023-03-15T06:05:41;99901.97;;;2.95;100.00
19748;BME280;10032;51.386;12.516;2023-03-15T06:08:06;99905.69;;;3.00;100.00
19748;BME280;10032;51.386;12.516;2023-03-15T06:10:31;99901.97;;;3.01;100.00
19748;BME280;10032;51.386;12.516;2023-03-15T06:12:58;99917.84;;;3.09;100.00
19748;BME280;10032;51.386;12.516;2023-03-15T06:15:23;99917.00;;;3.15;100.00
19748;BME280;10032;51.386;12.516;2023-03-15T06:17:49;99916.78;;;3.23;100.00
19748;BME280;10032;51.386;12.516;2023-03-15T06:20:14;99921.31;;;3.23;100.00
19748;BME280;10032;51.386;12.516;2023-03-15T06:22:40;99923.38;;;3.27;100.00
19748;BME280;10032;51.386;12.516;2023-03-15T06:25:06;99934.47;;;3.31;100.00
19748;BME280;10032;51.386;12.516;2023-03-15T06:27:32;99929.75;;;3.33;100.00
19748;BME280;10032;51.386;12.516;2023-03-15T06:29:57;99942.31;;;3.32;100.00
19748;BME280;10032;51.386;12.516;2023-03-15T06:32:23;99957.53;;;3.32;100.00
19748;BME280;10032;51.386;12.516;2023-03-15T06:34:49;99967.63;;;3.36;100.00
19748;BME280;10032;51.386;12.516;2023-03-15T06:37:14;99974.41;;;3.32;100.00
19748;BME280;10032;51.386;12.516;2023-03-15T06:39:40;99976.06;;;3.27;100.00
19748;BME280;10032;51.386;12.516;2023-03-15T06:42:06;99993.34;;;3.24;100.00
19748;BME280;10032;51.386;12.516;2023-03-15T06:44:33;99988.44;;;3.21;100.00
19748;BME280;10032;51.386;12.516;2023-03-15T06:46:59;99997.91;;;3.17;100.00
19748;BME280;10032;51.386;12.516;2023-03-15T06:49:24;99993.56;;;3.16;100.00
19748;BME280;10032;51.386;12.516;2023-03-15T06:51:50;99997.28;;;3.15;100.00
19748;BME280;10032;51.386;12.516;2023-03-15T06:54:16;100005.31;;;3.15;100.00
19748;BME280;10032;51.386;12.516;2023-03-15T06:56:41;100002.00;;;3.20;100.00
19748;BME280;10032;51.386;12.516;2023-03-15T06:59:07;100002.00;;;3.20;100.00
19748;BME280;10032;51.386;12.516;2023-03-15T07:01:33;100010.69;;;3.22;100.00
19748;BME280;10032;51.386;12.516;2023-03-15T07:03:58;100004.06;;;3.24;100.00
19748;BME280;10032;51.386;12.516;2023-03-15T07:06:24;100015.81;;;3.23;100.00
19748;BME280;10032;51.386;12.516;2023-03-15T07:08:49;100008.59;;;3.24;100.00
19748;BME280;10032;51.386;12.516;2023-03-15T07:11:14;100026.50;;;3.23;100.00
19748;BME280;10032;51.386;12.516;2023-03-15T07:13:40;100020.13;;;3.18;100.00
19748;BME280;10032;51.386;12.516;2023-03-15T07:16:05;100033.72;;;3.16;100.00
19748;BME280;10032;51.386;12.516;2023-03-15T07:18:32;100037.84;;;3.19;100.00
19748;BME280;10032;51.386;12.516;2023-03-15T07:21:00;100038.03;;;3.17;100.00
19748;BME280;10032;51.386;12.516;2023-03-15T07:23:26;100034.31;;;3.18;100.00
19748;BME280;10032;51.386;12.516;2023-03-15T07:25:52;100038.25;;;3.22;100.00
19748;BME280;10032;51.386;12.516;2023-03-15T07:28:19;100034.94;;;3.27;100.00
19748;BME280;10032;51.386;12.516;2023-03-15T07:31:00;100039.88;;;3.23;100.00
19748;BME280;10032;51.386;12.516;2023-03-15T07:33:27;100045.88;;;3.25;100.00
19748;BME280;10032;51.386;12.516;2023-03-15T07:35:53;100040.53;;;3.25;100.00
19748;BME280;10032;51.386;12.516;2023-03-15T07:38:24;100046.28;;;3.22;100.00
19748;BME280;10032;51.386;12.516;2023-03-15T07:40:51;100041.56;;;3.18;100.00
19748;BME280;10032;51.386;12.516;2023-03-15T07:43:17;100039.88;;;3.23;100.00
19748;BME280;10032;51.386;12.516;2023-03-15T07:45:42;100046.69;;;3.26;100.00
19748;BME280;10032;51.386;12.516;2023-03-15T07:48:08;100051.44;;;3.24;100.00
19748;BME280;10032;51.386;12.516;2023-03-15T07:50:36;100054.72;;;3.19;100.00
19748;BME280;10032;51.386;12.516;2023-03-15T07:53:03;100050.00;;;3.21;100.00
19748;BME280;10032;51.386;12.516;2023-03-15T07:55:28;100055.94;;;3.23;100.00
19748;BME280;10032;51.386;12.516;2023-03-15T07:57:54;100054.09;;;3.24;100.00
19748;BME280;10032;51.386;12.516;2023-03-15T08:00:19;100055.34;;;3.21;100.00
19748;BME280;10032;51.386;12.516;2023-03-15T08:02:47;100056.34;;;3.27;100.00
19748;BME280;10032;51.386;12.516;2023-03-15T08:05:12;100058.84;;;3.28;100.00
19748;BME280;10032;51.386;12.516;2023-03-15T08:07:37;100063.16;;;3.36;100.00
19748;BME280;10032;51.386;12.516;2023-03-15T08:10:03;100066.88;;;3.41;100.00
19748;BME280;10032;51.386;12.516;2023-03-15T08:12:33;100068.94;;;3.39;100.00
19748;BME280;10032;51.386;12.516;2023-03-15T08:14:59;100065.88;;;3.49;100.00
19748;BME280;10032;51.386;12.516;2023-03-15T08:17:25;100079.44;;;3.60;100.00
19748;BME280;10032;51.386;12.516;2023-03-15T08:19:50;100076.16;;;3.58;100.00
19748;BME280;10032;51.386;12.516;2023-03-15T08:22:16;100087.28;;;3.62;100.00
19748;BME280;10032;51.386;12.516;2023-03-15T08:24:41;100078.00;;;3.64;100.00
19748;BME280;10032;51.386;12.516;2023-03-15T08:27:09;100070.38;;;3.61;100.00
19748;BME280;10032;51.386;12.516;2023-03-15T08:29:35;100067.50;;;3.69;100.00
19748;BME280;10032;51.386;12.516;2023-03-15T08:32:01;100074.25;;;3.85;100.00
19748;BME280;10032;51.386;12.516;2023-03-15T08:34:27;100071.97;;;4.08;100.00
19748;BME280;10032;51.386;12.516;2023-03-15T08:36:53;100071.72;;;4.29;100.00
19748;BME280;10032;51.386;12.516;2023-03-15T08:39:21;100071.44;;;4.50;100.00
19748;BME280;10032;51.386;12.516;2023-03-15T08:41:51;100070.09;;;4.65;100.00
19748;BME280;10032;51.386;12.516;2023-03-15T08:44:28;100072.56;;;4.73;100.00
19748;BME280;10032;51.386;12.516;2023-03-15T08:47:16;100070.75;;;4.98;100.00
19748;BME280;10032;51.386;12.516;2023-03-15T08:49:44;100072.78;;;5.09;100.00
19748;BME280;10032;51.386;12.516;2023-03-15T08:52:09;100068.78;;;5.18;100.00
19748;BME280;10032;51.386;12.516;2023-03-15T08:54:35;100071.59;;;5.30;100.00
19748;BME280;10032;51.386;12.516;2023-03-15T08:57:01;100080.34;;;5.50;100.00
19748;BME280;10032;51.386;12.516;2023-03-15T08:59:26;100081.22;;;5.44;100.00
19748;BME280;10032;51.386;12.516;2023-03-15T09:01:51;100082.72;;;5.33;100.00
19748;BME280;10032;51.386;12.516;2023-03-15T09:04:17;100086.84;;;5.36;100.00
19748;BME280;10032;51.386;12.516;2023-03-15T09:06:43;100089.88;;;5.46;100.00
19748;BME280;10032;51.386;12.516;2023-03-15T09:09:08;100095.19;;;5.52;100.00
19748;BME280;10032;51.386;12.516;2023-03-15T09:11:33;100090.75;;;5.64;100.00
19748;BME280;10032;51.386;12.516;2023-03-15T09:13:59;100093.78;;;5.74;100.00
19748;BME280;10032;51.386;12.516;2023-03-15T09:16:24;100094.66;;;5.68;100.00
19748;BME280;10032;51.386;12.516;2023-03-15T09:18:50;100102.22;;;5.78;100.00
19748;BME280;10032;51.386;12.516;2023-03-15T09:21:15;100100.53;;;6.08;100.00
19748;BME280;10032;51.386;12.516;2023-03-15T09:23:41;100103.38;;;6.31;100.00
19748;BME280;10032;51.386;12.516;2023-03-15T09:26:06;100109.44;;;6.44;100.00
19748;BME280;10032;51.386;12.516;2023-03-15T09:28:31;100101.38;;;6.44;100.00
19748;BME280;10032;51.386;12.516;2023-03-15T09:30:57;100101.00;;;6.41;100.00
19748;BME280;10032;51.386;12.516;2023-03-15T09:33:22;100110.91;;;6.40;100.00
19748;BME280;10032;51.386;12.516;2023-03-15T09:35:51;100111.22;;;6.50;100.00
19748;BME280;10032;51.386;12.516;2023-03-15T09:38:17;100107.63;;;6.56;100.00
19748;BME280;10032;51.386;12.516;2023-03-15T09:40:44;100114.38;;;6.65;100.00
19748;BME280;10032;51.386;12.516;2023-03-15T09:54:03;100129.47;;;6.66;100.00
19748;BME280;10032;51.386;12.516;2023-03-15T09:59:19;100133.06;;;6.78;100.00
19748;BME280;10032;51.386;12.516;2023-03-15T10:01:47;100132.00;;;6.97;100.00
19748;BME280;10032;51.386;12.516;2023-03-15T10:04:32;100135.97;;;7.24;100.00
19748;BME280;10032;51.386;12.516;2023-03-15T10:07:08;100134.09;;;7.54;100.00
19748;BME280;10032;51.386;12.516;2023-03-15T10:09:36;100127.31;;;7.75;100.00
19748;BME280;10032;51.386;12.516;2023-03-15T10:12:11;100126.72;;;7.61;100.00
19748;BME280;10032;51.386;12.516;2023-03-15T10:20:12;100133.19;;;7.72;100.00
19748;BME280;10032;51.386;12.516;2023-03-15T10:25:33;100133.25;;;8.06;100.00
19748;BME280;10032;51.386;12.516;2023-03-15T10:30:27;100138.41;;;8.08;100.00
19748;BME280;10032;51.386;12.516;2023-03-15T10:33:42;100141.41;;;7.88;100.00
19748;BME280;10032;51.386;12.516;2023-03-15T10:35:43;100139.53;;;7.77;100.00
19748;BME280;10032;51.386;12.516;2023-03-15T10:38:16;100138.72;;;7.88;100.00
19748;BME280;10032;51.386;12.516;2023-03-15T10:40:50;100139.44;;;8.07;100.00
19748;BME280;10032;51.386;12.516;2023-03-15T10:45:41;100126.81;;;8.42;100.00
19748;BME280;10032;51.386;12.516;2023-03-15T10:48:07;100133.81;;;8.77;100.00
19748;BME280;10032;51.386;12.516;2023-03-15T10:50:32;100141.16;;;8.42;100.00
19748;BME280;10032;51.386;12.516;2023-03-15T10:53:00;100142.63;;;8.15;100.00
19748;BME280;10032;51.386;12.516;2023-03-15T10:55:35;100144.97;;;8.00;100.00
19748;BME280;10032;51.386;12.516;2023-03-15T10:58:26;100148.22;;;7.91;100.00
19748;BME280;10032;51.386;12.516;2023-03-15T11:01:02;100148.34;;;7.84;100.00
19748;BME280;10032;51.386;12.516;2023-03-15T11:03:31;100143.19;;;7.83;100.00
19748;BME280;10032;51.386;12.516;2023-03-15T11:05:57;100147.44;;;7.90;100.00
19748;BME280;10032;51.386;12.516;2023-03-15T11:08:39;100150.69;;;7.92;100.00
19748;BME280;10032;51.386;12.516;2023-03-15T11:11:06;100160.34;;;8.00;100.00
19748;BME280;10032;51.386;12.516;2023-03-15T11:13:37;100158.72;;;8.10;100.00
19748;BME280;10032;51.386;12.516;2023-03-15T11:16:17;100157.53;;;8.06;100.00
19748;BME280;10032;51.386;12.516;2023-03-15T11:18:58;100150.53;;;8.28;100.00
19748;BME280;10032;51.386;12.516;2023-03-15T11:21:30;100146.41;;;8.49;100.00
19748;BME280;10032;51.386;12.516;2023-03-15T11:24:00;100143.59;;;8.44;100.00
19748;BME280;10032;51.386;12.516;2023-03-15T11:26:26;100148.88;;;8.50;100.00
19748;BME280;10032;51.386;12.516;2023-03-15T11:29:00;100155.34;;;8.38;100.00
19748;BME280;10032;51.386;12.516;2023-03-15T11:31:29;100160.50;;;8.28;100.00
19748;BME280;10032;51.386;12.516;2023-03-15T11:33:57;100162.25;;;8.22;100.00
19748;BME280;10032;51.386;12.516;2023-03-15T11:36:27;100163.63;;;8.13;100.00
19748;BME280;10032;51.386;12.516;2023-03-15T11:38:55;100161.50;;;8.15;100.00
19748;BME280;10032;51.386;12.516;2023-03-15T11:41:36;100170.66;;;8.14;100.00
19748;BME280;10032;51.386;12.516;2023-03-15T11:47:38;100170.00;;;8.42;100.00
19748;BME280;10032;51.386;12.516;2023-03-15T11:49:42;100167.44;;;8.58;100.00
19748;BME280;10032;51.386;12.516;2023-03-15T11:52:10;100169.63;;;8.84;100.00
19748;BME280;10032;51.386;12.516;2023-03-15T11:54:36;100169.56;;;9.35;100.00
19748;BME280;10032;51.386;12.516;2023-03-15T11:57:05;100153.19;;;9.53;100.00
19748;BME280;10032;51.386;12.516;2023-03-15T11:59:38;100173.66;;;9.21;100.00
19748;BME280;10032;51.386;12.516;2023-03-15T12:07:55;100165.63;;;8.87;100.00
19748;BME280;10032;51.386;12.516;2023-03-15T12:09:54;100164.16;;;9.07;100.00
19748;BME280;10032;51.386;12.516;2023-03-15T12:17:56;100171.50;;;9.79;99.82
19748;BME280;10032;51.386;12.516;2023-03-15T12:20:39;100168.06;;;9.84;95.41
19748;BME280;10032;51.386;12.516;2023-03-15T12:29:10;100157.31;;;9.89;87.89
19748;BME280;10032;51.386;12.516;2023-03-15T12:31:55;100164.47;;;10.28;89.80
19748;BME280;10032;51.386;12.516;2023-03-15T12:37:21;100163.47;;;10.50;88.32
19748;BME280;10032;51.386;12.516;2023-03-15T12:39:53;100163.34;;;10.07;86.27
19748;BME280;10032;51.386;12.516;2023-03-15T12:53:20;100166.75;;;9.02;87.89
19748;BME280;10032;51.386;12.516;2023-03-15T12:55:48;100177.03;;;9.28;86.76
19748;BME280;10032;51.386;12.516;2023-03-15T12:58:15;100181.19;;;9.47;87.81
19748;BME280;10032;51.386;12.516;2023-03-15T13:00:43;100184.06;;;9.57;86.53
19748;BME280;10032;51.386;12.516;2023-03-15T13:03:18;100181.63;;;9.72;86.18
19748;BME280;10032;51.386;12.516;2023-03-15T13:06:08;100184.06;;;9.57;85.13
19748;BME280;10032;51.386;12.516;2023-03-15T13:17:03;100196.19;;;9.15;84.33
19748;BME280;10032;51.386;12.516;2023-03-15T13:19:39;100204.13;;;8.94;83.02
19748;BME280;10032;51.386;12.516;2023-03-15T13:24:55;100200.81;;;9.03;84.19
19748;BME280;10032;51.386;12.516;2023-03-15T13:35:54;100199.13;;;9.25;81.71
19748;BME280;10032;51.386;12.516;2023-03-15T13:40:52;100204.31;;;9.15;78.44
19748;BME280;10032;51.386;12.516;2023-03-15T13:43:18;100214.56;;;9.02;78.04
19748;BME280;10032;51.386;12.516;2023-03-15T13:45:44;100221.25;;;8.99;79.86
19748;BME280;10032;51.386;12.516;2023-03-15T13:48:09;100211.00;;;9.24;80.65
19748;BME280;10032;51.386;12.516;2023-03-15T13:50:35;100218.19;;;9.19;79.54
19748;BME280;10032;51.386;12.516;2023-03-15T13:53:02;100221.13;;;9.17;81.33
19748;BME280;10032;51.386;12.516;2023-03-15T13:55:33;100219.69;;;9.26;80.71
19748;BME280;10032;51.386;12.516;2023-03-15T13:58:05;100218.13;;;9.42;78.99
19748;BME280;10032;51.386;12.516;2023-03-15T14:00:33;100217.78;;;9.38;78.23
19748;BME280;10032;51.386;12.516;2023-03-15T14:03:03;100223.88;;;9.34;76.00
19748;BME280;10032;51.386;12.516;2023-03-15T14:05:33;100225.19;;;9.31;75.85
19748;BME280;10032;51.386;12.516;2023-03-15T14:10:42;100233.88;;;9.45;77.42
19748;BME280;10032;51.386;12.516;2023-03-15T14:16:42;100234.66;;;9.57;75.44
19748;BME280;10032;51.386;12.516;2023-03-15T14:21:41;100252.31;;;8.74;80.96
19748;BME280;10032;51.386;12.516;2023-03-15T14:24:14;100254.88;;;8.46;85.82
19748;BME280;10032;51.386;12.516;2023-03-15T14:26:40;100252.38;;;8.21;87.24
19748;BME280;10032;51.386;12.516;2023-03-15T14:29:26;100244.31;;;8.03;88.57